Time;durP1;ratioP1;P1;durP2;ratioP2;P2;SDS_P1;SDS_P2;PMS_P1;PMS_P2;Temp;Humidity;BMP_temperature;BMP_pressure;BME280_temperature;BME280_humidity;BME280_pressure;Samples;Min_cycle;Max_cycle;Signal;HPM_P1;HPM_P2
2023/10/23 07:25:42;;;;;;;26.95;14.20;;;;;;;5.32;92.14;97869.38;5063762;28;20064;-59
2023/10/23 07:28:08;;;;;;;24.65;13.57;;;;;;;5.35;92.84;97868.91;5089154;28;20060;-59
2023/10/23 07:30:35;;;;;;;27.80;14.10;;;;;;;5.38;92.17;97863.97;5090290;28;20395;-59
2023/10/23 07:33:01;;;;;;;29.65;14.93;;;;;;;5.51;92.02;97865.47;5090329;28;20040;-59
2023/10/23 07:35:26;;;;;;;26.73;14.60;;;;;;;5.51;91.20;97873.34;5090073;28;20039;-59
2023/10/23 07:37:52;;;;;;;31.48;16.50;;;;;;;5.57;90.45;97863.69;5090430;28;20040;-59
2023/10/23 07:40:18;;;;;;;31.33;14.40;;;;;;;5.59;90.35;97854.53;5090172;28;20401;-59
2023/10/23 07:42:44;;;;;;;30.05;15.88;;;;;;;5.65;90.85;97858.03;5090367;28;20051;-60
2023/10/23 07:45:10;;;;;;;31.75;14.23;;;;;;;5.69;90.35;97861.75;5091921;28;20040;-58
2023/10/23 07:47:36;;;;;;;27.38;13.55;;;;;;;5.70;91.97;97852.81;5076529;28;20133;-59
2023/10/23 07:50:04;;;;;;;26.52;14.43;;;;;;;5.64;91.38;97853.78;5094402;28;20524;-60
2023/10/23 07:52:31;;;;;;;25.00;12.88;;;;;;;5.62;92.35;97850.63;5076062;28;20059;-61
2023/10/23 07:54:57;;;;;;;28.85;12.82;;;;;;;5.53;91.80;97846.81;5094255;28;20589;-61
2023/10/23 07:57:22;;;;;;;17.48;11.10;;;;;;;5.48;91.07;97850.19;5094572;28;20084;-60
2023/10/23 07:59:48;;;;;;;26.33;13.35;;;;;;;5.48;92.65;97847.56;5094144;28;20040;-60
2023/10/23 08:02:14;;;;;;;22.00;12.73;;;;;;;5.49;92.44;97843.09;5094266;28;20507;-56
2023/10/23 08:04:40;;;;;;;23.85;13.02;;;;;;;5.47;91.84;97838.06;5093916;28;20513;-60
2023/10/23 08:07:05;;;;;;;24.40;12.38;;;;;;;5.51;92.00;97836.56;5094417;28;20055;-59
2023/10/23 08:09:31;;;;;;;23.38;12.55;;;;;;;5.56;92.24;97836.63;5076139;28;20520;-60
2023/10/23 08:11:57;;;;;;;23.10;13.98;;;;;;;5.63;92.40;97839.06;5075409;28;20520;-58
2023/10/23 08:14:23;;;;;;;22.95;13.57;;;;;;;5.56;90.13;97826.13;5093878;28;20054;-59
2023/10/23 08:16:51;;;;;;;21.83;13.23;;;;;;;5.56;91.08;97830.56;5093933;28;20040;-58
2023/10/23 08:19:18;;;;;;;21.50;13.23;;;;;;;5.55;90.22;97824.50;5093694;28;20044;-60
2023/10/23 08:21:44;;;;;;;22.55;12.65;;;;;;;5.42;90.84;97809.88;5093620;28;20135;-59
2023/10/23 08:24:10;;;;;;;22.05;11.80;;;;;;;5.43;90.11;97818.56;5093773;28;20044;-59
2023/10/23 08:26:35;;;;;;;19.25;12.15;;;;;;;5.43;90.10;97818.56;5093909;28;20067;-61
2023/10/23 08:29:02;;;;;;;20.02;12.23;;;;;;;5.50;89.72;97813.13;5075696;28;20128;-58
2023/10/23 08:31:28;;;;;;;21.98;12.32;;;;;;;5.51;90.09;97807.63;5073497;28;20055;-61
2023/10/23 08:33:53;;;;;;;19.35;10.70;;;;;;;5.63;88.89;97810.16;5053222;28;20032;-61
2023/10/23 08:36:19;;;;;;;18.65;11.00;;;;;;;5.59;88.68;97806.41;5072819;28;20419;-57
2023/10/23 08:38:45;;;;;;;17.20;9.98;;;;;;;5.63;88.26;97799.66;5092850;28;20048;-59
2023/10/23 08:41:12;;;;;;;15.60;9.90;;;;;;;5.63;87.92;97803.06;5074379;28;20093;-60
2023/10/23 08:43:39;;;;;;;19.92;10.88;;;;;;;5.58;87.73;97807.47;5093478;28;20422;-60
2023/10/23 08:46:08;;;;;;;20.83;11.13;;;;;;;5.57;88.72;97798.78;5074428;28;20413;-59
2023/10/23 08:48:35;;;;;;;19.15;11.57;;;;;;;5.57;89.19;97790.91;5090047;28;20055;-60
2023/10/23 08:51:02;;;;;;;19.08;11.20;;;;;;;5.61;88.18;97789.34;5092819;28;20126;-59
2023/10/23 08:53:33;;;;;;;19.58;11.15;;;;;;;5.62;88.25;97782.28;5055915;28;20097;-60
2023/10/23 08:56:03;;;;;;;18.45;11.15;;;;;;;5.64;88.11;97775.72;5090475;28;20040;-60
2023/10/23 08:58:33;;;;;;;18.27;11.05;;;;;;;5.68;88.43;97771.59;5092571;28;20075;-58
2023/10/23 09:00:59;;;;;;;18.23;10.70;;;;;;;5.70;88.38;97782.63;5057280;28;20097;-60
2023/10/23 09:03:26;;;;;;;21.45;10.43;;;;;;;5.71;88.04;97775.56;5074192;28;20035;-60
2023/10/23 09:05:51;;;;;;;15.75;10.30;;;;;;;5.82;88.45;97774.63;5092138;28;20039;-60
2023/10/23 09:08:18;;;;;;;18.92;10.65;;;;;;;5.91;87.41;97772.34;5091780;28;20081;-60
2023/10/23 09:11:03;;;;;;;17.08;10.10;;;;;;;5.92;87.51;97769.50;5073788;28;20040;-61
2023/10/23 09:13:34;;;;;;;17.52;9.93;;;;;;;6.02;87.60;97765.41;5091770;28;20056;-59
2023/10/23 09:15:59;;;;;;;19.02;11.10;;;;;;;6.11;87.93;97762.06;5074198;28;20039;-59
2023/10/23 09:18:25;;;;;;;20.75;9.90;;;;;;;6.07;86.56;97747.84;5092248;28;20096;-60
2023/10/23 09:20:51;;;;;;;20.90;11.73;;;;;;;6.09;87.08;97755.50;5092003;28;20097;-60
2023/10/23 09:23:16;;;;;;;19.60;11.15;;;;;;;6.05;86.79;97738.59;5092364;28;20408;-59
2023/10/23 09:25:42;;;;;;;20.50;11.93;;;;;;;6.05;86.41;97738.59;5092089;28;20091;-59
2023/10/23 09:28:12;;;;;;;17.88;10.93;;;;;;;6.02;86.84;97739.09;5091027;28;20060;-60
2023/10/23 09:30:38;;;;;;;21.92;11.10;;;;;;;6.05;86.32;97742.03;5091743;28;20044;-59
2023/10/23 09:33:05;;;;;;;24.65;14.30;;;;;;;6.07;87.37;97739.94;5092022;28;20409;-59
2023/10/23 09:35:32;;;;;;;15.93;10.70;;;;;;;6.11;87.23;97735.75;5073863;28;20086;-59
2023/10/23 09:37:58;;;;;;;21.02;13.00;;;;;;;6.19;87.08;97733.75;5092048;28;20207;-59
2023/10/23 09:40:24;;;;;;;20.00;11.55;;;;;;;6.14;86.74;97731.84;5091887;28;20150;-58
2023/10/23 09:42:51;;;;;;;21.02;13.45;;;;;;;6.17;86.74;97733.97;5091836;28;20185;-58
2023/10/23 09:45:17;;;;;;;19.00;12.65;;;;;;;6.12;86.68;97728.69;5073837;28;20047;-61
2023/10/23 09:47:45;;;;;;;18.15;12.30;;;;;;;6.24;87.76;97729.31;5091884;28;20047;-60
2023/10/23 09:50:11;;;;;;;19.27;12.25;;;;;;;6.30;86.65;97724.91;5073513;28;20492;-59
2023/10/23 09:52:37;;;;;;;15.27;9.63;;;;;;;6.25;86.15;97723.00;5072867;28;20138;-58
2023/10/23 09:55:05;;;;;;;16.75;10.60;;;;;;;6.28;86.71;97724.34;5073309;28;20036;-60
2023/10/23 09:57:38;;;;;;;20.25;11.52;;;;;;;6.33;86.11;97716.50;5073522;28;20486;-59
2023/10/23 10:00:17;;;;;;;18.23;11.98;;;;;;;6.23;86.59;97724.31;5091267;28;20118;-58
2023/10/23 10:02:45;;;;;;;18.90;12.27;;;;;;;6.12;86.49;97715.53;5036942;28;20044;-61
2023/10/23 10:05:20;;;;;;;20.23;11.52;;;;;;;6.10;87.42;97713.16;5091515;28;20047;-58
2023/10/23 10:08:09;;;;;;;17.60;10.93;;;;;;;6.11;87.24;97703.41;5091678;28;20070;-58
2023/10/23 10:10:38;;;;;;;17.02;9.93;;;;;;;6.12;87.51;97700.53;5040444;28;20051;-59
2023/10/23 10:13:04;;;;;;;21.58;11.32;;;;;;;6.23;88.34;97696.16;5073211;28;20036;-57
2023/10/23 10:15:31;;;;;;;20.10;12.85;;;;;;;6.28;86.78;97690.94;5048707;28;20040;-59
2023/10/23 10:17:57;;;;;;;19.83;10.65;;;;;;;6.19;87.35;97684.53;5090961;28;20052;-60
2023/10/23 10:20:24;;;;;;;17.70;10.40;;;;;;;6.21;87.68;97684.31;5090835;28;20044;-59
2023/10/23 10:23:00;;;;;;;16.80;10.73;;;;;;;6.26;87.19;97682.50;5091183;28;20051;-59
2023/10/23 10:25:27;;;;;;;17.73;11.27;;;;;;;6.28;87.53;97679.63;5034097;28;20046;-59
2023/10/23 10:27:57;;;;;;;19.75;12.00;;;;;;;6.32;86.67;97670.16;5072350;28;20055;-60
2023/10/23 10:30:49;;;;;;;16.30;10.95;;;;;;;6.34;86.56;97670.72;5090976;28;20092;-60
2023/10/23 10:33:19;;;;;;;17.40;10.30;;;;;;;6.29;88.04;97668.03;5089269;28;20040;-59
2023/10/23 10:35:57;;;;;;;18.23;10.33;;;;;;;6.24;87.13;97668.81;5090896;28;20032;-61
2023/10/23 10:38:23;;;;;;;18.90;11.20;;;;;;;6.17;86.91;97667.41;5090838;28;20571;-59
2023/10/23 10:40:57;;;;;;;19.00;11.07;;;;;;;6.10;86.94;97667.63;5088325;28;20089;-59
2023/10/23 10:43:24;;;;;;;17.55;10.15;;;;;;;6.14;87.66;97668.72;5090216;28;20043;-62
2023/10/23 10:45:50;;;;;;;29.25;14.43;;;;;;;6.19;87.45;97671.38;5090951;28;20044;-60
2023/10/23 10:48:16;;;;;;;25.92;15.10;;;;;;;6.22;87.76;97665.63;5091274;28;20059;-60
2023/10/23 10:50:42;;;;;;;24.23;13.68;;;;;;;6.25;88.25;97661.69;5091013;28;20052;-58
2023/10/23 10:53:13;;;;;;;21.00;12.35;;;;;;;6.29;87.70;97657.50;5091025;28;20075;-60
2023/10/23 10:55:39;;;;;;;20.38;13.27;;;;;;;6.30;88.32;97672.28;5091188;28;20036;-60
2023/10/23 10:58:06;;;;;;;20.02;12.32;;;;;;;6.32;88.04;97664.91;5073275;28;20043;-59
2023/10/23 11:00:35;;;;;;;21.52;13.55;;;;;;;6.35;88.24;97659.13;5090978;28;20094;-60
2023/10/23 11:03:02;;;;;;;27.27;13.73;;;;;;;6.30;87.08;97654.66;5090811;28;20525;-61
2023/10/23 11:05:29;;;;;;;28.58;14.60;;;;;;;6.30;87.67;97652.00;5090796;28;20485;-60
2023/10/23 11:07:54;;;;;;;27.85;13.60;;;;;;;6.37;87.29;97651.78;5091221;28;20108;-61
2023/10/23 11:10:20;;;;;;;25.50;13.75;;;;;;;6.39;88.24;97646.28;5090934;28;20405;-61
2023/10/23 11:12:47;;;;;;;27.63;15.55;;;;;;;6.39;86.96;97641.81;5091104;28;20101;-59
2023/10/23 11:15:14;;;;;;;23.27;13.93;;;;;;;6.39;87.55;97641.81;5090785;28;20032;-60
2023/10/23 11:17:43;;;;;;;31.85;17.88;;;;;;;6.37;87.14;97633.38;5090727;28;20421;-59
2023/10/23 11:20:13;;;;;;;26.70;17.75;;;;;;;6.31;87.63;97632.53;5092502;28;20032;-55
2023/10/23 11:22:43;;;;;;;26.83;14.43;;;;;;;6.30;88.16;97638.06;5027077;28;20047;-59
2023/10/23 11:25:10;;;;;;;23.60;13.25;;;;;;;6.31;87.55;97629.13;5094696;28;20078;-60
2023/10/23 11:27:37;;;;;;;24.33;13.23;;;;;;;6.35;88.37;97632.81;5094036;28;20056;-59
2023/10/23 11:30:04;;;;;;;22.38;12.88;;;;;;;6.29;87.42;97626.72;5093728;28;20509;-61
2023/10/23 11:32:31;;;;;;;19.85;11.95;;;;;;;6.30;87.57;97625.69;5059862;28;20458;-60
2023/10/23 11:35:03;;;;;;;23.75;13.00;;;;;;;6.25;88.05;97627.50;5094044;28;20475;-59
2023/10/23 11:37:37;;;;;;;19.48;11.65;;;;;;;6.28;88.58;97625.16;5092581;28;20133;-59
2023/10/23 11:40:07;;;;;;;18.48;11.18;;;;;;;6.27;87.96;97618.31;5093983;28;20516;-60
2023/10/23 11:42:56;;;;;;;20.30;11.50;;;;;;;6.31;88.61;97627.28;5076238;28;20040;-60
2023/10/23 11:45:22;;;;;;;19.30;10.88;;;;;;;6.28;88.52;97621.72;5075355;28;20062;-60
2023/10/23 11:47:51;;;;;;;19.63;11.15;;;;;;;6.25;89.60;97619.59;5093914;28;20501;-61
2023/10/23 11:50:18;;;;;;;23.02;12.30;;;;;;;6.33;89.01;97624.41;5075536;28;20113;-60
2023/10/23 11:52:45;;;;;;;21.15;12.55;;;;;;;6.32;89.83;97614.91;5073890;28;20040;-59
2023/10/23 11:55:16;;;;;;;17.25;10.88;;;;;;;6.41;88.91;97610.75;5075544;28;20089;-60
2023/10/23 11:57:45;;;;;;;20.45;13.15;;;;;;;6.40;88.74;97611.03;5093818;28;20036;-60
2023/10/23 12:00:12;;;;;;;21.17;12.55;;;;;;;6.40;89.01;97616.28;5094015;28;20067;-59
2023/10/23 12:02:42;;;;;;;29.77;14.20;;;;;;;6.40;88.84;97616.28;5093525;28;20044;-60
2023/10/23 12:05:12;;;;;;;23.58;13.38;;;;;;;6.40;88.60;97614.44;5073281;28;20040;-60
2023/10/23 12:07:56;;;;;;;21.73;12.50;;;;;;;6.23;89.18;97616.41;5093538;28;20101;-60
2023/10/23 12:10:26;;;;;;;22.63;13.38;;;;;;;6.26;90.37;97621.19;5058248;28;20055;-60
2023/10/23 12:12:53;;;;;;;31.52;14.95;;;;;;;6.35;89.89;97611.75;5093587;28;20086;-59
2023/10/23 12:15:20;;;;;;;27.33;13.70;;;;;;;6.49;89.94;97609.50;5093489;28;20036;-60
2023/10/23 12:17:46;;;;;;;24.95;14.25;;;;;;;6.49;88.70;97610.28;5093089;28;20046;-59
2023/10/23 12:20:14;;;;;;;41.25;15.93;;;;;;;6.37;88.81;97613.09;5056769;28;20036;-60
2023/10/23 12:22:44;;;;;;;27.80;14.82;;;;;;;6.32;89.39;97615.72;5093221;28;20297;-60
2023/10/23 12:25:10;;;;;;;28.00;15.70;;;;;;;6.43;89.49;97615.78;5093068;28;20520;-60
2023/10/23 12:27:37;;;;;;;34.78;15.00;;;;;;;6.42;88.58;97608.94;5074566;28;20501;-61
2023/10/23 12:30:04;;;;;;;44.55;15.55;;;;;;;6.30;87.82;97603.84;5093584;28;20054;-59
2023/10/23 12:32:32;;;;;;;31.77;14.93;;;;;;;6.23;88.71;97598.78;5093351;28;20043;-58
2023/10/23 12:34:58;;;;;;;34.20;15.68;;;;;;;6.10;89.25;97605.28;5093402;28;20050;-61
2023/10/23 12:37:28;;;;;;;32.25;15.43;;;;;;;6.18;89.35;97606.66;5093331;28;20414;-60
2023/10/23 12:39:54;;;;;;;31.98;17.48;;;;;;;6.06;89.02;97601.59;5093570;28;20052;-60
2023/10/23 12:42:20;;;;;;;43.40;19.92;;;;;;;6.11;88.81;97604.22;5093421;28;20167;-60
2023/10/23 12:44:50;;;;;;;43.58;19.25;;;;;;;6.10;89.58;97602.66;5075434;28;20074;-59
2023/10/23 12:47:16;;;;;;;65.30;21.60;;;;;;;6.06;89.28;97585.81;5093542;28;20032;-60
2023/10/23 12:49:42;;;;;;;42.33;19.65;;;;;;;6.11;89.95;97593.72;5093529;28;20044;-60
2023/10/23 12:52:09;;;;;;;53.97;20.20;;;;;;;6.11;89.47;97592.91;5093357;28;20726;-60
2023/10/23 12:54:34;;;;;;;134.40;25.10;;;;;;;6.02;88.44;97591.81;5074728;28;20067;-59
2023/10/23 12:57:03;;;;;;;111.18;24.88;;;;;;;5.98;89.35;97593.38;5092663;28;20485;-59
2023/10/23 12:59:28;;;;;;;34.22;17.88;;;;;;;5.88;89.67;97583.50;5074925;28;20182;-60
2023/10/23 13:01:54;;;;;;;33.10;17.33;;;;;;;5.87;90.50;97587.19;5093069;28;20035;-61
2023/10/23 13:04:21;;;;;;;207.27;29.73;;;;;;;5.91;89.35;97580.38;5093104;28;20511;-61
2023/10/23 13:06:51;;;;;;;88.80;19.38;;;;;;;5.85;89.62;97574.31;5092727;28;20397;-59
2023/10/23 13:09:16;;;;;;;38.83;14.80;;;;;;;5.85;89.36;97590.09;5092311;28;20089;-61
2023/10/23 13:11:46;;;;;;;69.72;16.88;;;;;;;5.61;89.32;97584.34;5091841;28;20305;-60
2023/10/23 13:14:11;;;;;;;40.55;14.98;;;;;;;5.69;89.98;97585.72;5040530;28;20100;-60
2023/10/23 13:16:37;;;;;;;75.18;17.30;;;;;;;5.66;90.77;97580.97;5073896;28;20040;-61
2023/10/23 13:19:05;;;;;;;29.63;14.35;;;;;;;5.74;90.88;97580.53;5073962;28;20048;-62
2023/10/23 13:21:33;;;;;;;39.17;13.98;;;;;;;5.73;89.81;97583.38;5092081;28;20512;-61
2023/10/23 13:23:59;;;;;;;50.25;12.95;;;;;;;5.71;88.89;97588.91;5074125;28;20538;-61
2023/10/23 13:26:25;;;;;;;48.53;13.73;;;;;;;5.63;89.25;97584.88;5091504;28;20419;-61
2023/10/23 13:28:51;;;;;;;28.95;12.20;;;;;;;5.60;89.19;97590.63;5091674;28;20048;-59
2023/10/23 13:31:16;;;;;;;21.98;9.43;;;;;;;5.50;89.41;97590.56;5091964;28;20047;-61
2023/10/23 13:33:42;;;;;;;13.10;8.05;;;;;;;5.38;89.02;97589.88;5092023;28;20048;-61
2023/10/23 13:36:08;;;;;;;11.18;7.10;;;;;;;5.32;88.71;97583.78;5073580;28;20043;-60
2023/10/23 13:38:35;;;;;;;9.85;6.38;;;;;;;5.31;90.08;97586.66;5073579;28;20040;-58
2023/10/23 13:41:03;;;;;;;8.32;5.45;;;;;;;5.30;89.81;97585.88;5091520;28;20055;-63
2023/10/23 13:43:29;;;;;;;9.48;5.90;;;;;;;5.26;89.97;97586.63;5091134;28;20524;-62
2023/10/23 13:45:54;;;;;;;10.50;5.75;;;;;;;5.29;89.47;97586.91;5091456;28;20048;-61
2023/10/23 13:48:20;;;;;;;7.75;4.97;;;;;;;5.30;89.94;97588.50;5073701;28;20043;-59
2023/10/23 13:50:49;;;;;;;7.90;4.88;;;;;;;5.33;89.32;97582.75;5091599;28;20086;-60
2023/10/23 13:53:19;;;;;;;8.00;5.35;;;;;;;5.32;89.75;97590.88;5096756;28;20032;-60
2023/10/23 13:55:45;;;;;;;6.38;4.95;;;;;;;5.32;90.64;97583.00;5091371;28;20051;-59
2023/10/23 13:58:11;;;;;;;13.40;5.70;;;;;;;5.24;89.99;97595.53;5072834;28;20040;-60
2023/10/23 14:00:37;;;;;;;5.10;3.60;;;;;;;5.16;89.50;97590.72;5091516;28;20097;-60
2023/10/23 14:03:04;;;;;;;6.05;3.67;;;;;;;5.12;90.76;97584.38;5073764;28;20054;-59
2023/10/23 14:05:30;;;;;;;4.47;3.28;;;;;;;5.08;89.91;97590.38;5056755;28;20090;-59
2023/10/23 14:07:55;;;;;;;3.95;2.80;;;;;;;4.95;89.99;97591.53;5091218;28;20067;-59
2023/10/23 14:10:21;;;;;;;3.40;2.80;;;;;;;4.78;91.27;97592.38;5073302;28;20563;-60
2023/10/23 14:12:47;;;;;;;2.83;2.60;;;;;;;4.79;90.75;97593.16;5091291;28;20067;-60
2023/10/23 14:15:13;;;;;;;4.13;2.45;;;;;;;4.70;92.53;97594.63;5091487;28;20039;-60
2023/10/23 14:17:38;;;;;;;3.67;2.63;;;;;;;4.68;92.25;97584.38;5091637;28;20127;-60
2023/10/23 14:20:06;;;;;;;5.15;3.33;;;;;;;4.71;93.14;97580.47;5073377;28;20130;-58
2023/10/23 14:22:32;;;;;;;5.38;3.80;;;;;;;4.71;93.50;97570.78;5091757;28;20500;-60
2023/10/23 14:24:58;;;;;;;9.50;4.65;;;;;;;4.74;93.45;97585.25;5089922;28;20039;-62
2023/10/23 14:27:24;;;;;;;10.43;4.78;;;;;;;4.64;92.81;97578.00;5088961;28;20117;-60
2023/10/23 14:29:49;;;;;;;5.28;3.70;;;;;;;4.68;93.22;97581.75;5091319;28;20040;-61
2023/10/23 14:32:15;;;;;;;5.47;3.22;;;;;;;4.68;92.24;97579.13;5090599;28;20044;-61
2023/10/23 14:34:41;;;;;;;4.75;3.00;;;;;;;4.60;92.44;97584.78;5090852;28;20089;-61
2023/10/23 14:37:06;;;;;;;5.57;2.67;;;;;;;4.65;92.75;97587.50;5072791;28;20118;-58
2023/10/23 14:39:32;;;;;;;3.58;3.08;;;;;;;4.69;91.89;97588.59;5054534;28;20111;-62
2023/10/23 14:41:58;;;;;;;3.65;2.75;;;;;;;4.70;92.52;97594.63;5091004;28;20040;-62
2023/10/23 14:44:24;;;;;;;4.45;2.88;;;;;;;4.68;92.24;97592.25;5053600;28;20159;-62
2023/10/23 14:46:50;;;;;;;4.75;3.25;;;;;;;4.67;92.26;97593.28;5090052;28;20052;-60
2023/10/23 14:49:16;;;;;;;5.30;3.63;;;;;;;4.61;92.39;97590.84;5091416;28;20040;-60
2023/10/23 14:51:43;;;;;;;7.38;3.70;;;;;;;4.66;93.31;97591.69;5091274;28;20150;-60
2023/10/23 14:54:09;;;;;;;4.82;3.00;;;;;;;4.72;92.28;97597.81;5073100;28;20096;-59
2023/10/23 14:56:36;;;;;;;4.35;3.65;;;;;;;4.69;91.93;97595.69;5095482;28;20089;-60
2023/10/23 14:59:01;;;;;;;3.90;3.05;;;;;;;4.66;91.43;97596.94;5095424;28;20036;-61
2023/10/23 15:01:27;;;;;;;5.40;3.38;;;;;;;4.69;91.65;97600.94;5076812;28;20056;-61
2023/10/23 15:03:55;;;;;;;6.07;3.22;;;;;;;4.67;91.69;97610.84;5077342;28;20032;-59
2023/10/23 15:06:21;;;;;;;3.83;2.75;;;;;;;4.62;91.45;97608.97;5094843;28;20055;-61
2023/10/23 15:08:47;;;;;;;4.00;2.80;;;;;;;4.64;90.89;97614.75;5094614;28;20036;-61
2023/10/23 15:11:14;;;;;;;4.53;2.80;;;;;;;4.61;90.81;97615.25;5093520;28;20405;-62
2023/10/23 15:13:41;;;;;;;3.13;2.42;;;;;;;4.58;91.12;97614.94;5056584;28;20063;-60
2023/10/23 15:16:06;;;;;;;3.65;2.72;;;;;;;4.46;91.28;97613.19;5075149;28;20036;-59
2023/10/23 15:18:33;;;;;;;2.88;2.53;;;;;;;4.57;92.23;97611.53;5089591;28;20485;-58
2023/10/23 15:21:03;;;;;;;2.95;2.33;;;;;;;4.47;91.12;97606.13;5093112;28;20046;-60
2023/10/23 15:23:29;;;;;;;3.08;2.30;;;;;;;4.48;91.06;97626.09;5094756;28;20509;-59
2023/10/23 15:25:55;;;;;;;3.80;2.25;;;;;;;4.48;91.08;97619.00;5094994;28;20102;-61
2023/10/23 15:28:22;;;;;;;2.72;2.30;;;;;;;4.48;91.90;97611.16;5094004;28;20143;-60
2023/10/23 15:30:54;;;;;;;5.05;2.67;;;;;;;4.46;90.55;97613.19;5094361;28;20048;-59
2023/10/23 15:33:21;;;;;;;2.75;2.35;;;;;;;4.36;91.40;97607.03;5093809;28;20132;-57
2023/10/23 15:35:51;;;;;;;3.35;2.60;;;;;;;4.41;91.97;97614.97;5089567;28;20043;-59
2023/10/23 15:38:20;;;;;;;;;;;;;;;4.42;92.28;97612.09;5073252;28;20117;-61
2023/10/23 15:40:49;;;;;;;2.58;2.38;;;;;;;4.44;91.76;97614.47;5093548;28;19924;-60
2023/10/23 15:43:19;;;;;;;5.30;2.63;;;;;;;4.44;91.77;97614.47;5075513;28;20573;-60
2023/10/23 15:45:46;;;;;;;5.30;3.33;;;;;;;4.46;91.27;97613.19;5093943;28;20048;-60
2023/10/23 15:48:13;;;;;;;5.43;3.50;;;;;;;4.43;91.83;97632.06;5075202;28;20409;-60
2023/10/23 15:50:40;;;;;;;5.00;3.08;;;;;;;4.39;91.45;97630.16;5091453;28;20102;-60
2023/10/23 15:53:05;;;;;;;4.68;2.80;;;;;;;4.39;91.32;97632.78;5075457;28;20043;-60
2023/10/23 15:55:31;;;;;;;6.10;3.88;;;;;;;4.45;91.95;97624.75;5075053;28;20046;-60
2023/10/23 15:57:57;;;;;;;4.45;3.33;;;;;;;4.42;91.50;97625.22;5075257;28;20082;-61
2023/10/23 16:00:24;;;;;;;4.72;3.13;;;;;;;4.39;91.36;97630.16;5074230;28;20497;-58
2023/10/23 16:02:50;;;;;;;5.22;3.40;;;;;;;4.31;93.12;97626.09;5075155;28;20108;-58
2023/10/23 16:05:16;;;;;;;4.10;3.10;;;;;;;4.32;95.12;97640.81;5093051;28;20040;-60
2023/10/23 16:07:42;;;;;;;3.28;2.78;;;;;;;4.11;94.10;97642.31;5075062;28;20417;-59
2023/10/23 16:10:08;;;;;;;4.40;2.97;;;;;;;4.04;94.48;97632.00;5093683;28;20542;-61
2023/10/23 16:12:34;;;;;;;4.57;2.90;;;;;;;4.01;94.89;97650.03;5093444;28;20158;-59
2023/10/23 16:15:00;;;;;;;2.97;2.58;;;;;;;3.97;93.99;97647.09;5073727;28;20040;-60
2023/10/23 16:17:26;;;;;;;4.57;2.50;;;;;;;3.90;94.06;97632.53;5093279;28;20405;-61
2023/10/23 16:19:51;;;;;;;3.85;2.47;;;;;;;3.89;93.57;97641.44;5092146;28;20078;-60
2023/10/23 16:22:19;;;;;;;3.03;2.63;;;;;;;3.96;95.73;97650.72;5092670;28;20044;-60
2023/10/23 16:24:45;;;;;;;5.78;2.88;;;;;;;3.95;95.64;97646.53;5090448;28;20032;-58
2023/10/23 16:27:11;;;;;;;3.53;2.63;;;;;;;3.97;96.03;97644.47;5092682;28;20101;-61
2023/10/23 16:29:37;;;;;;;4.85;2.60;;;;;;;3.95;95.38;97649.16;5090261;28;20047;-60
2023/10/23 16:32:03;;;;;;;3.72;2.50;;;;;;;3.93;95.28;97645.97;5092901;28;20043;-59
2023/10/23 16:34:29;;;;;;;2.60;2.35;;;;;;;3.85;93.58;97638.47;5092280;28;20032;-58
2023/10/23 16:36:55;;;;;;;3.72;2.20;;;;;;;3.86;93.24;97653.19;5092800;28;20032;-60
2023/10/23 16:39:21;;;;;;;3.53;2.22;;;;;;;3.82;92.48;97647.63;5092338;28;20047;-61
2023/10/23 16:41:48;;;;;;;2.10;1.95;;;;;;;3.86;92.77;97655.81;5074409;28;20044;-62
2023/10/23 16:44:14;;;;;;;2.22;1.92;;;;;;;3.83;91.92;97651.84;5092539;28;20036;-59
2023/10/23 16:46:40;;;;;;;2.30;2.00;;;;;;;3.89;92.86;97650.09;5092588;28;20035;-60
2023/10/23 16:49:06;;;;;;;2.70;1.90;;;;;;;3.83;92.78;97651.84;5054541;28;20044;-58
2023/10/23 16:51:31;;;;;;;2.60;1.45;;;;;;;3.81;92.47;97655.72;5074139;28;20044;-57
2023/10/23 16:53:57;;;;;;;1.63;1.45;;;;;;;3.81;92.09;97650.47;5074077;28;20481;-60
2023/10/23 16:56:23;;;;;;;2.53;1.80;;;;;;;3.83;91.81;97649.22;5091994;28;20036;-56
2023/10/23 16:58:49;;;;;;;3.25;1.88;;;;;;;3.91;92.43;97660.34;5091434;28;20128;-58
2023/10/23 17:01:15;;;;;;;3.40;2.00;;;;;;;3.85;91.48;97668.13;5092447;28;20044;-57
2023/10/23 17:03:41;;;;;;;2.55;1.85;;;;;;;3.80;92.36;97662.00;5091667;28;20501;-56
2023/10/23 17:06:08;;;;;;;1.98;1.65;;;;;;;3.78;92.76;97670.09;5092356;28;20409;-58
2023/10/23 17:08:35;;;;;;;3.28;2.13;;;;;;;3.78;93.09;97666.69;5090982;28;20050;-59
2023/10/23 17:11:06;;;;;;;3.28;1.63;;;;;;;3.73;92.74;97672.59;5091922;28;20505;-59
2023/10/23 17:13:31;;;;;;;1.98;1.50;;;;;;;3.69;93.04;97668.09;5092130;28;20532;-56
2023/10/23 17:15:58;;;;;;;2.28;1.70;;;;;;;3.71;92.82;97676.53;5073575;28;20162;-58
2023/10/23 17:18:24;;;;;;;3.08;1.90;;;;;;;3.75;94.00;97675.81;5085535;28;20115;-58
2023/10/23 17:20:50;;;;;;;1.95;1.40;;;;;;;3.69;93.50;97679.34;5091208;28;20180;-58
2023/10/23 17:23:18;;;;;;;1.67;1.30;;;;;;;3.65;92.78;97683.50;5072746;28;20042;-58
2023/10/23 17:25:47;;;;;;;1.75;1.17;;;;;;;3.66;91.82;97685.06;5091091;28;20040;-57
2023/10/23 17:28:13;;;;;;;1.33;1.10;;;;;;;3.60;91.94;97691.25;5068529;28;20150;-58
2023/10/23 17:30:39;;;;;;;1.67;1.38;;;;;;;3.54;91.78;97682.50;5069757;28;20060;-59
2023/10/23 17:33:08;;;;;;;1.27;1.15;;;;;;;3.52;92.63;97683.75;5069722;28;20040;-59
2023/10/23 17:35:34;;;;;;;1.20;1.00;;;;;;;3.46;92.12;97684.69;5071718;28;20047;-57
2023/10/23 17:38:01;;;;;;;1.25;1.05;;;;;;;3.41;92.49;97690.59;5071207;28;20040;-59
2023/10/23 17:40:27;;;;;;;1.35;1.20;;;;;;;3.43;92.35;97701.66;5072004;28;20139;-55
2023/10/23 17:42:53;;;;;;;1.75;1.27;;;;;;;3.43;92.72;97688.56;5070605;28;20127;-57
2023/10/23 17:45:19;;;;;;;2.60;1.48;;;;;;;3.47;92.63;97701.97;5070222;28;20044;-58
2023/10/23 17:47:45;;;;;;;1.30;1.20;;;;;;;3.51;92.02;97705.75;5069374;28;20032;-62
2023/10/23 17:50:11;;;;;;;2.50;1.40;;;;;;;3.58;93.58;97701.94;5071214;28;20036;-60
2023/10/23 17:52:37;;;;;;;1.20;1.10;;;;;;;3.50;93.31;97709.38;5067423;28;20045;-58
2023/10/23 17:55:06;;;;;;;1.48;1.17;;;;;;;3.49;95.38;97697.31;5069920;28;20044;-56
2023/10/23 17:57:32;;;;;;;2.15;1.23;;;;;;;3.50;94.62;97717.25;5069218;28;20094;-62
2023/10/23 17:59:58;;;;;;;1.80;1.50;;;;;;;3.50;94.61;97709.38;5071090;28;20041;-59
2023/10/23 18:02:24;;;;;;;1.05;1.02;;;;;;;3.51;93.76;97722.25;5070262;28;20040;-57
2023/10/23 18:04:50;;;;;;;1.40;1.05;;;;;;;3.39;91.82;97726.72;5066938;28;20537;-59
2023/10/23 18:07:16;;;;;;;2.10;1.40;;;;;;;3.37;92.87;97728.78;5071197;28;20097;-61
2023/10/23 18:09:43;;;;;;;1.40;1.30;;;;;;;3.32;92.22;97731.28;5069611;28;20436;-59
2023/10/23 18:12:09;;;;;;;2.25;1.60;;;;;;;3.42;91.95;97728.88;5071355;28;20044;-61
2023/10/23 18:14:35;;;;;;;1.48;1.20;;;;;;;3.40;90.52;97744.03;5071464;28;20109;-60
2023/10/23 18:17:01;;;;;;;1.17;1.02;;;;;;;3.32;90.66;97723.44;5071126;28;20045;-60
2023/10/23 18:19:27;;;;;;;1.98;0.95;;;;;;;3.40;91.37;97747.44;5070762;28;20040;-61
2023/10/23 18:21:54;;;;;;;1.08;0.98;;;;;;;3.42;90.54;97732.31;5052895;28;20036;-61
2023/10/23 18:24:20;;;;;;;1.05;0.93;;;;;;;3.40;89.15;97736.97;5071067;28;20395;-61
2023/10/23 18:26:45;;;;;;;1.80;0.85;;;;;;;3.41;89.07;97738.59;5073409;28;20047;-61
2023/10/23 18:29:11;;;;;;;2.85;1.10;;;;;;;3.40;89.05;97751.91;5057475;28;20161;-61
2023/10/23 18:31:37;;;;;;;1.00;0.90;;;;;;;3.42;89.80;97745.41;5036617;28;20052;-62
2023/10/23 18:34:03;;;;;;;1.50;1.00;;;;;;;3.38;90.95;97756.56;5070844;28;20036;-61
2023/10/23 18:36:32;;;;;;;1.25;1.05;;;;;;;3.39;90.27;97758.97;5070937;28;20041;-60
2023/10/23 18:39:01;;;;;;;1.08;1.00;;;;;;;3.40;90.46;97757.91;5053021;28;20085;-61
2023/10/23 18:41:27;;;;;;;1.20;1.10;;;;;;;3.51;91.32;97771.25;5071309;28;20048;-60
2023/10/23 18:43:54;;;;;;;1.20;1.10;;;;;;;3.46;90.43;97760.66;5071361;28;20068;-59
2023/10/23 18:46:20;;;;;;;1.10;1.00;;;;;;;3.45;90.73;97767.72;5053074;28;20085;-60
2023/10/23 18:48:45;;;;;;;0.80;0.80;;;;;;;3.39;90.16;97774.69;5051387;28;20476;-60
2023/10/23 18:51:11;;;;;;;1.00;1.00;;;;;;;3.34;89.94;97779.78;5069380;28;20036;-62
2023/10/23 18:53:37;;;;;;;0.80;0.80;;;;;;;3.18;88.46;97781.31;5068207;28;20044;-61
2023/10/23 18:56:04;;;;;;;1.02;1.00;;;;;;;3.23;89.54;97785.03;5069171;28;20086;-60
2023/10/23 18:58:30;;;;;;;1.15;1.10;;;;;;;3.29;90.28;97778.88;5069385;28;20047;-60